Pfugerville's Hourly Summary for Saturday, April 15, 2017
Hour Temp
(f)
RH
(%)
Solar Rad.
(MJ/m2)
Rainfall
(in)
Wind
(mph)
4/15/2017 12:00 AM 67 100 0 0 4.62
4/15/2017 1:00 AM 66 100 0 0 6.51
4/15/2017 2:00 AM 66 100 0 0 5.73
4/15/2017 3:00 AM 66 100 0 0 5.8
4/15/2017 4:00 AM 65 100 0 0 4.84
4/15/2017 5:00 AM 64 100 0 0 4.18
4/15/2017 6:00 AM 64 100 0 0 4.59
4/15/2017 7:00 AM 64 100 0 0 4.14
4/15/2017 8:00 AM 64 100 0.09 0 5.12
4/15/2017 9:00 AM 65 100 0.3 0 6.89
4/15/2017 10:00 AM 67 100 0.77 0 8.91
4/15/2017 11:00 AM 70 100 1.37 0 9.54
4/15/2017 12:00 PM 73 99 1.98 0 10.82
4/15/2017 1:00 PM 76 85 2.98 0 10.77
4/15/2017 2:00 PM 78 75 2.96 0 10.56
4/15/2017 3:00 PM 79 66 2.82 0 11.07
4/15/2017 4:00 PM 79 67 2.23 0 9.71
4/15/2017 5:00 PM 80 63 1.8 0 9.64
4/15/2017 6:00 PM 80 64 1 0 7.95
4/15/2017 7:00 PM 78 65 0.66 0 7.12
4/15/2017 8:00 PM 76 75 0.21 0 5.83
4/15/2017 9:00 PM 74 82 0 0 5.99
4/15/2017 10:00 PM 72 87 0 0 5.77
4/15/2017 11:00 PM 70 97 0 0 5.67
Data Summary 70 88 19.17 0.00 7.16